Portada
METAR-TAF:

METAR-TAF

Aeropuertos :

Lagos, Nigeria

Aeropuerto Internacional Murtala Muhammed

latitud: 06-35N, longitud: 003-20E, altitud: 40 m

Observación

El informe se hizo hace 23 minutos, a las 22:00 UTC
Viento 3 kt del sur
Temperatura 27°C
Humedad 89%
Presión 1012 hPa
Visibilidad: 8000 m

METAR: DNMM 212200Z 17003KT 8000 NSC 27/25 Q1012 NOSIG

Hora: 23:23 (22:23 UTC)

Pronóstico

El informe se hizo hace 6 horas y 33 minutos, a las 15:50 UTC
Pronóstico válido del 21 a las 18 UTC al 22 a las 24 UTC
Viento 2 kt con dirección variable
Visibilidad: 8000 m
Escasas nubes a una altura de 1200 ft
Temporalmente
del 22 a las 05 UTC al 22 a las 08 UTC
Visibilidad: 5000 m
calima
Evolucionando progresivamente
del 22 a las 08 UTC al 22 a las 10 UTC
Viento 10 kt del oeste-suroeste
Cielo nuboso a una altura de 1300 ft

TAF: DNMM 211550Z 2118/2224 VRB02KT 8000 FEW012 TEMPO 2205/2208 5000 HZ BECMG 2208/2210 25010KT BKN013

Observaciones y pronósticos meteorológicos de más de 4000 aeropuertos (mensajes METAR y TAF).

Los puntos amarillos y rojos representan las estaciones disponibles.

Ponga el ratón en el punto deseado para ver el nombre de la estación.

Haga clic para ver las observaciones y los pronósticos meteorológicos.

Para cambiar el mapa : haga clic en los botones verdes con una cruz de color negro para hacer un zoom, en el botón verde con un guión para alejar o en las flechas verdes para mapas adyacentes.


METAR-TAF: